createdAt,value
2016-12-10T11:38:17.379Z,8328
2016-12-10T11:39:26.995Z,8528
2016-12-10T11:40:36.492Z,8896
2016-12-10T11:41:46.368Z,9012
2016-12-10T11:42:55.851Z,9024
2016-12-10T11:44:05.353Z,9260
2016-12-10T11:45:15.139Z,9436
2016-12-10T11:46:24.923Z,9416
2016-12-10T11:47:34.413Z,9412
2016-12-10T11:48:44.213Z,9724
2016-12-10T11:49:53.714Z,10228
2016-12-10T11:51:03.510Z,10764
2016-12-10T11:52:13.331Z,10936
2016-12-10T11:53:23.136Z,10268
2016-12-10T11:54:32.951Z,9424
2016-12-10T11:55:42.494Z,7624
2016-12-10T11:56:52.338Z,8876
2016-12-10T11:58:02.148Z,8796
2016-12-10T11:59:11.953Z,8784
2016-12-10T12:00:21.422Z,8768
2016-12-10T12:01:30.891Z,9076
2016-12-10T12:02:40.698Z,9040
2016-12-10T12:03:50.543Z,9564
2016-12-10T12:05:00.312Z,10124
2016-12-10T12:06:10.095Z,9608
2016-12-10T12:07:19.879Z,9884
2016-12-10T12:08:29.680Z,9260
2016-12-10T12:09:39.437Z,8316
2016-12-10T12:10:48.597Z,8424
2016-12-10T12:11:58.082Z,8080
2016-12-10T12:13:07.872Z,8552
2016-12-10T12:14:17.668Z,9548
2016-12-10T12:15:26.867Z,8832
2016-12-10T12:16:36.351Z,7988
2016-12-10T12:17:45.520Z,8720
2016-12-10T12:18:55.523Z,7316
2016-12-10T12:20:04.686Z,6864
2016-12-10T12:21:13.870Z,5432
2016-12-10T12:22:23.662Z,4480
2016-12-10T12:23:33.168Z,4192
2016-12-10T12:24:42.944Z,4380
2016-12-10T12:25:52.096Z,4124
2016-12-10T12:27:01.883Z,3992
2016-12-10T12:28:11.349Z,4168
2016-12-10T12:29:21.194Z,4240
2016-12-10T12:30:31.026Z,4172
2016-12-10T12:31:40.827Z,3800
2016-12-10T12:32:50.613Z,3472
2016-12-10T12:34:00.120Z,3192
2016-12-10T12:35:09.648Z,3124
2016-12-10T12:36:19.304Z,3176
2016-12-10T12:37:28.805Z,3196
2016-12-10T12:38:38.294Z,2940
2016-12-10T12:39:47.763Z,2704
2016-12-10T12:40:57.228Z,2668
2016-12-10T12:42:07.061Z,2884
2016-12-10T12:43:16.547Z,3092
2016-12-10T12:44:26.453Z,3164
2016-12-10T12:45:36.231Z,3292
2016-12-10T12:46:46.031Z,3380
2016-12-10T12:47:55.588Z,3216
2016-12-10T12:49:05.478Z,2812
2016-12-10T12:50:14.667Z,2552
2016-12-10T12:51:24.161Z,2240
2016-12-10T12:52:33.671Z,2096
2016-12-10T12:53:43.245Z,2068
2016-12-10T12:54:52.726Z,1940
2016-12-10T12:56:02.565Z,1732
2016-12-10T12:57:12.188Z,1532
2016-12-10T12:58:21.973Z,1480
2016-12-10T12:59:31.762Z,1476
2016-12-10T13:00:41.407Z,1460
2016-12-10T13:01:50.890Z,1432
2016-12-10T13:03:00.375Z,1420
2016-12-10T13:04:09.595Z,1424
2016-12-10T13:05:18.762Z,1400
2016-12-10T13:06:27.989Z,1332
2016-12-10T13:07:37.520Z,1260
2016-12-10T13:08:47.040Z,1220
2016-12-10T13:09:56.592Z,1200
2016-12-10T13:11:06.382Z,1176
2016-12-10T13:12:15.883Z,1192
2016-12-10T13:13:25.700Z,1196
2016-12-10T13:14:35.217Z,1160
2016-12-10T13:15:44.920Z,1068
2016-12-10T13:16:54.718Z,944
2016-12-10T13:18:04.324Z,892
2016-12-10T13:19:12.907Z,932
2016-12-10T13:20:22.736Z,968
2016-12-10T13:21:32.530Z,924
2016-12-10T13:22:42.058Z,912
2016-12-10T13:23:51.894Z,948
2016-12-10T13:25:01.772Z,976
2016-12-10T13:26:11.005Z,948
2016-12-10T13:27:20.471Z,956
2016-12-10T13:28:30.070Z,1120
2016-12-10T13:29:39.931Z,1240
2016-12-10T13:30:49.716Z,1344
2016-12-10T13:31:59.234Z,1460
2016-12-10T13:33:08.426Z,1616
2016-12-10T13:34:17.960Z,1560
2016-12-10T13:35:27.826Z,1472
2016-12-10T13:36:37.618Z,1448
2016-12-10T13:37:46.869Z,1424
2016-12-10T13:38:56.035Z,1320
2016-12-10T13:40:05.558Z,1188
2016-12-10T13:41:15.354Z,1160
2016-12-10T13:42:24.837Z,1144
2016-12-10T13:43:34.757Z,1188
2016-12-10T13:44:44.580Z,1164
2016-12-10T13:45:54.544Z,1176
2016-12-10T13:47:04.094Z,1168
2016-12-10T13:48:14.001Z,1092
2016-12-10T13:49:23.498Z,940
2016-12-10T13:50:33.279Z,740
2016-12-10T13:51:42.841Z,748
2016-12-10T13:52:52.528Z,844
2016-12-10T13:54:02.038Z,940
2016-12-10T13:55:11.598Z,960
2016-12-10T13:56:20.776Z,896
2016-12-10T13:57:30.581Z,868
2016-12-10T13:58:40.529Z,820
2016-12-10T13:59:50.095Z,800
2016-12-10T14:01:31.837Z,752
2016-12-10T14:02:41.669Z,756
2016-12-10T14:03:51.328Z,780
2016-12-10T14:05:01.171Z,776
2016-12-10T14:06:10.950Z,744
2016-12-10T14:07:20.789Z,728
2016-12-10T14:08:30.381Z,712
2016-12-10T14:09:39.850Z,672
2016-12-10T14:10:49.642Z,628
2016-12-10T14:11:59.516Z,652
2016-12-10T14:13:09.289Z,664
2016-12-10T14:14:18.825Z,624
2016-12-10T14:15:28.627Z,604
2016-12-10T14:16:38.146Z,620
2016-12-10T14:17:47.921Z,576
2016-12-10T14:18:57.429Z,504
2016-12-10T14:20:07.274Z,516
2016-12-10T14:21:16.434Z,532
2016-12-10T14:22:25.617Z,552
2016-12-10T14:23:35.483Z,560
2016-12-10T14:24:45.333Z,532
2016-12-10T14:25:55.224Z,496
2016-12-10T14:27:04.743Z,476
2016-12-10T14:28:14.228Z,448
2016-12-10T14:29:23.729Z,440
2016-12-10T14:30:33.541Z,440
2016-12-10T14:31:43.347Z,448
2016-12-10T14:32:52.660Z,472
2016-12-10T14:34:02.565Z,488
2016-12-10T14:35:12.090Z,476
2016-12-10T14:36:21.882Z,412
2016-12-10T14:37:31.390Z,340
2016-12-10T14:38:41.221Z,300
2016-12-10T14:39:51.008Z,280
2016-12-10T14:41:00.847Z,272
2016-12-10T14:42:10.701Z,292
2016-12-10T14:43:20.225Z,268
2016-12-10T14:44:29.708Z,208
2016-12-10T14:45:39.501Z,204
2016-12-10T14:46:49.049Z,212
2016-12-10T14:47:58.883Z,216
2016-12-10T14:49:08.102Z,192
2016-12-10T14:50:17.650Z,164
2016-12-10T14:51:27.115Z,140
2016-12-10T14:52:36.905Z,132
2016-12-10T14:53:46.503Z,136
2016-12-10T14:54:55.690Z,124
2016-12-10T14:56:05.157Z,112
2016-12-10T14:57:14.885Z,112
2016-12-10T14:58:24.065Z,104
2016-12-10T14:59:33.614Z,88
2016-12-10T15:00:43.424Z,72
2016-12-10T15:01:52.294Z,64
2016-12-10T15:03:02.275Z,60
2016-12-10T15:04:11.804Z,56
2016-12-10T15:05:21.666Z,52
2016-12-10T15:06:31.454Z,44
2016-12-10T15:07:41.432Z,40
2016-12-10T15:08:50.980Z,36
2016-12-10T15:10:00.830Z,36
2016-12-10T15:11:10.704Z,28
2016-12-10T15:12:20.204Z,28
2016-12-10T15:13:29.999Z,24
2016-12-10T15:14:39.581Z,20
2016-12-10T15:15:49.386Z,16
2016-12-10T15:16:59.164Z,16
2016-12-10T15:18:08.669Z,12
2016-12-10T15:19:18.522Z,8
2016-12-10T15:20:27.987Z,8
2016-12-10T15:21:37.545Z,4
2016-12-10T15:22:47.035Z,4
2016-12-10T15:23:56.553Z,4
2016-12-10T15:25:06.351Z,4
2016-12-10T15:26:15.992Z,4
2016-12-10T15:27:25.896Z,4
2016-12-10T15:28:35.707Z,4
2016-12-10T15:29:45.531Z,0
2016-12-10T15:30:55.312Z,0
2016-12-10T15:32:04.820Z,0
2016-12-10T15:33:14.674Z,0
2016-12-10T15:34:24.589Z,0
2016-12-10T15:35:34.105Z,4
2016-12-10T15:36:43.587Z,4
2016-12-10T15:37:53.097Z,4
2016-12-10T15:39:02.998Z,4
2016-12-10T15:40:12.817Z,4
2016-12-10T15:41:22.631Z,4
2016-12-10T15:42:32.427Z,0
2016-12-10T15:43:42.237Z,0
2016-12-10T15:44:52.021Z,0
2016-12-10T15:46:01.850Z,0
2016-12-10T15:47:11.388Z,0
2016-12-10T15:48:21.287Z,0
2016-12-10T15:49:30.832Z,0
2016-12-10T15:50:40.073Z,0
2016-12-10T15:51:49.927Z,0
2016-12-10T15:52:59.796Z,0
2016-12-10T15:54:08.997Z,0
2016-12-10T15:55:18.897Z,0
2016-12-10T15:56:28.497Z,0
2016-12-10T15:57:38.003Z,0
2016-12-10T15:58:47.838Z,0
2016-12-10T15:59:57.685Z,0
2016-12-10T16:01:07.509Z,0
2016-12-10T16:02:17.032Z,0
2016-12-10T16:03:26.964Z,0
2016-12-10T16:04:36.774Z,0
2016-12-10T16:05:46.307Z,0
2016-12-10T16:06:55.519Z,0
2016-12-10T16:08:05.378Z,0
2016-12-10T16:09:14.932Z,0
2016-12-10T16:10:24.772Z,0
2016-12-10T16:11:34.700Z,0
2016-12-10T16:12:44.516Z,0
2016-12-10T16:13:54.015Z,0
2016-12-10T16:15:03.562Z,0
2016-12-10T16:16:13.434Z,0
2016-12-10T16:17:22.918Z,0
2016-12-10T16:18:32.094Z,0
2016-12-10T16:19:41.702Z,0
2016-12-10T16:20:51.548Z,0
2016-12-10T16:22:01.098Z,0
2016-12-10T16:23:10.617Z,0
2016-12-10T16:24:20.561Z,0
2016-12-10T16:25:30.355Z,0
2016-12-10T16:26:39.852Z,0
2016-12-10T16:27:49.018Z,0
2016-12-10T16:28:58.824Z,0
2016-12-10T16:30:08.369Z,0
2016-12-10T16:31:17.904Z,0
2016-12-10T16:32:27.185Z,0
2016-12-10T16:33:36.963Z,0
2016-12-10T16:34:46.456Z,0
2016-12-10T16:35:56.272Z,0
2016-12-10T16:37:05.761Z,0
2016-12-10T16:38:15.557Z,0
2016-12-10T16:39:25.379Z,0
2016-12-10T16:40:35.168Z,0
2016-12-10T16:41:44.705Z,0
2016-12-10T16:42:54.252Z,0
2016-12-10T16:44:03.777Z,0
2016-12-10T16:45:13.561Z,0
2016-12-10T16:46:23.372Z,0
2016-12-10T16:47:33.155Z,0
2016-12-10T16:48:42.892Z,0
2016-12-10T16:49:52.096Z,0
2016-12-10T16:51:01.917Z,0
2016-12-10T16:52:11.505Z,0
2016-12-10T16:53:21.032Z,0
2016-12-10T16:54:30.530Z,0
2016-12-10T16:55:40.033Z,0
2016-12-10T16:56:49.932Z,0
2016-12-10T16:57:59.764Z,0
2016-12-10T16:59:09.587Z,0
2016-12-10T17:00:19.405Z,0
2016-12-10T17:01:28.738Z,0
2016-12-10T17:02:38.535Z,0
2016-12-10T17:03:48.145Z,0
2016-12-10T17:04:57.625Z,0
2016-12-10T17:06:07.583Z,0
2016-12-10T17:07:17.102Z,0
2016-12-10T17:08:26.899Z,0
2016-12-10T17:09:36.698Z,0
2016-12-10T17:10:46.584Z,0
2016-12-10T17:11:56.053Z,0
2016-12-10T17:13:05.653Z,0
2016-12-10T17:14:15.159Z,0
2016-12-10T17:15:24.664Z,0
2016-12-10T17:16:34.485Z,0
2016-12-10T17:17:44.406Z,0
2016-12-10T17:18:54.226Z,0
2016-12-10T17:20:03.730Z,0
2016-12-10T17:21:13.251Z,0
2016-12-10T17:22:22.761Z,0
2016-12-10T17:23:32.610Z,0
2016-12-10T17:24:42.151Z,0
2016-12-10T17:25:51.999Z,0
2016-12-10T17:27:01.644Z,0
2016-12-10T17:28:11.184Z,0
2016-12-10T17:29:20.734Z,0
2016-12-10T17:30:30.542Z,0
2016-12-10T17:31:40.060Z,0
2016-12-10T17:32:49.622Z,0
2016-12-10T17:33:59.419Z,0
2016-12-10T17:35:08.961Z,0
2016-12-10T17:36:18.502Z,0
2016-12-10T17:37:28.306Z,0
2016-12-10T17:38:37.809Z,0
2016-12-10T17:39:46.987Z,0
2016-12-10T17:40:56.798Z,0
2016-12-10T17:42:06.604Z,0
2016-12-10T17:43:16.414Z,0
2016-12-10T17:44:25.672Z,0
2016-12-10T17:45:35.697Z,0
2016-12-10T17:46:45.300Z,0
2016-12-10T17:47:54.522Z,0
2016-12-10T17:49:05.432Z,0
2016-12-10T17:50:15.283Z,0
2016-12-10T17:51:25.100Z,0
2016-12-10T17:52:34.698Z,0
2016-12-10T17:53:44.276Z,0
2016-12-10T17:54:54.102Z,0
2016-12-10T17:56:03.615Z,0
2016-12-10T17:57:13.533Z,0
2016-12-10T17:58:23.041Z,0
2016-12-10T17:59:32.862Z,0
2016-12-10T18:00:42.681Z,0
2016-12-10T18:01:52.752Z,0
2016-12-10T18:03:02.567Z,0
2016-12-10T18:04:12.386Z,0
2016-12-10T18:05:22.230Z,0
2016-12-10T18:06:32.071Z,0
2016-12-10T18:07:41.666Z,0
2016-12-10T18:08:50.976Z,0
2016-12-10T18:10:00.830Z,0
2016-12-10T18:11:10.429Z,0
2016-12-10T18:12:20.236Z,0
2016-12-10T18:13:29.756Z,0
2016-12-10T18:14:38.921Z,0
2016-12-10T18:15:48.718Z,0
2016-12-10T18:16:58.567Z,0
2016-12-10T18:18:08.486Z,0
2016-12-10T18:19:18.310Z,0
2016-12-10T18:20:28.179Z,0
2016-12-10T18:21:37.679Z,0
2016-12-10T18:22:47.660Z,0
2016-12-10T18:23:57.480Z,0
2016-12-10T18:25:07.311Z,0
2016-12-10T18:26:17.134Z,0
2016-12-10T18:27:26.614Z,0
2016-12-10T18:28:36.492Z,0
2016-12-10T18:29:45.692Z,0
2016-12-10T18:30:55.541Z,0
2016-12-10T18:32:05.410Z,0
2016-12-10T18:33:14.593Z,0
2016-12-10T18:34:24.484Z,0
2016-12-10T18:35:33.704Z,0
2016-12-10T18:36:43.255Z,0
2016-12-10T18:37:53.082Z,0
2016-12-10T18:39:02.681Z,0
2016-12-10T18:40:12.563Z,0
2016-12-10T18:41:22.169Z,0
2016-12-10T18:42:31.958Z,0
2016-12-10T18:43:41.487Z,0
2016-12-10T18:44:51.041Z,0
2016-12-10T18:46:00.937Z,0
2016-12-10T18:47:10.814Z,0
2016-12-10T18:48:20.328Z,0
2016-12-10T18:49:29.854Z,0
2016-12-10T18:50:39.022Z,0
2016-12-10T18:51:48.703Z,0
2016-12-10T18:52:57.880Z,0
2016-12-10T18:54:07.063Z,0
2016-12-10T18:55:16.878Z,0
2016-12-10T18:56:26.427Z,0
2016-12-10T18:57:35.955Z,0
2016-12-10T18:58:45.138Z,0
2016-12-10T18:59:54.994Z,0
2016-12-10T19:01:04.827Z,0
2016-12-10T19:02:14.841Z,0
2016-12-10T19:03:24.647Z,0
2016-12-10T19:04:34.508Z,0
2016-12-10T19:05:43.720Z,0
2016-12-10T19:06:53.529Z,0
2016-12-10T19:08:03.040Z,0
2016-12-10T19:09:12.324Z,0
2016-12-10T19:10:22.158Z,0
2016-12-10T19:11:31.684Z,0
2016-12-10T19:12:41.590Z,0
2016-12-10T19:13:51.499Z,0
2016-12-10T19:15:01.379Z,0
2016-12-10T19:16:10.901Z,0
2016-12-10T19:17:20.413Z,0
2016-12-10T19:18:30.294Z,0
2016-12-10T19:19:39.907Z,0
2016-12-10T19:20:49.922Z,0
2016-12-10T19:21:58.845Z,0
2016-12-10T19:23:08.917Z,0
2016-12-10T19:24:18.882Z,0
2016-12-10T19:25:28.898Z,0
2016-12-10T19:26:38.781Z,0
2016-12-10T19:27:48.535Z,0
2016-12-10T19:28:58.249Z,0
2016-12-10T19:30:07.843Z,0
2016-12-10T19:31:17.423Z,0
2016-12-10T19:32:27.293Z,0
2016-12-10T19:33:36.947Z,0
2016-12-10T19:34:46.879Z,0
2016-12-10T19:35:56.802Z,0
2016-12-10T19:37:06.391Z,0
2016-12-10T19:38:16.201Z,0
2016-12-10T19:39:26.099Z,0
2016-12-10T19:40:35.332Z,0
2016-12-10T19:41:44.962Z,0
2016-12-10T19:42:54.678Z,0
2016-12-10T19:44:04.740Z,0
2016-12-10T19:45:14.380Z,0
2016-12-10T19:46:23.963Z,0
2016-12-10T19:47:33.690Z,0
2016-12-10T19:48:43.971Z,0
2016-12-10T19:49:53.916Z,0
2016-12-10T19:51:03.495Z,0
2016-12-10T19:52:13.281Z,0
2016-12-10T19:53:23.214Z,0
2016-12-10T19:54:33.017Z,0
2016-12-10T19:55:42.738Z,0
2016-12-10T19:56:52.695Z,0
2016-12-10T19:58:02.356Z,0
2016-12-10T19:59:11.708Z,0
2016-12-10T20:00:21.671Z,0
2016-12-10T20:01:31.025Z,0
2016-12-10T20:02:40.993Z,0
2016-12-10T20:03:50.979Z,0
2016-12-10T20:05:00.627Z,0
2016-12-10T20:06:10.278Z,0
2016-12-10T20:07:19.643Z,0
2016-12-10T20:08:29.668Z,0
2016-12-10T20:09:39.619Z,0
2016-12-10T20:10:49.577Z,0
2016-12-10T20:11:59.283Z,0
2016-12-10T20:13:09.328Z,0
2016-12-10T20:14:19.420Z,0
2016-12-10T20:15:29.464Z,0
2016-12-10T20:16:39.549Z,0
2016-12-10T20:17:49.400Z,0
2016-12-10T20:18:59.165Z,0
2016-12-10T20:20:09.176Z,0
2016-12-10T20:21:18.856Z,0
2016-12-10T20:22:28.866Z,0
2016-12-10T20:23:38.578Z,0
2016-12-10T20:24:48.592Z,0
2016-12-10T20:25:58.538Z,0
2016-12-10T20:27:08.678Z,0
2016-12-10T20:28:18.728Z,0
2016-12-10T20:29:28.672Z,0
2016-12-10T20:30:38.049Z,0
2016-12-10T20:31:47.671Z,0
2016-12-10T20:32:57.298Z,0
2016-12-10T20:34:07.006Z,0
2016-12-10T20:35:17.055Z,0
2016-12-10T20:36:27.088Z,0
2016-12-10T20:37:37.304Z,0
2016-12-10T20:38:47.021Z,0
2016-12-10T20:39:56.793Z,0
2016-12-10T20:41:06.948Z,0
2016-12-10T20:42:17.061Z,0
2016-12-10T20:43:27.179Z,0
2016-12-10T20:44:36.488Z,0
2016-12-10T20:45:46.146Z,0
2016-12-10T20:46:56.086Z,0
2016-12-10T20:48:06.064Z,0
2016-12-10T20:49:16.003Z,0
2016-12-10T20:50:25.976Z,0
2016-12-10T20:51:35.540Z,0
2016-12-10T20:52:45.125Z,0
2016-12-10T20:53:54.749Z,0
2016-12-10T20:55:04.419Z,0
2016-12-10T20:56:14.083Z,0
2016-12-10T20:57:24.049Z,0
2016-12-10T20:58:34.075Z,0
2016-12-10T20:59:44.051Z,0
2016-12-10T21:00:53.706Z,0
2016-12-10T21:02:03.394Z,0
2016-12-10T21:03:12.982Z,0
2016-12-10T21:04:22.755Z,0
2016-12-10T21:05:32.774Z,0
2016-12-10T21:06:42.708Z,0
2016-12-10T21:07:52.452Z,0
2016-12-10T21:09:02.436Z,0
2016-12-10T21:10:12.449Z,0
2016-12-10T21:11:22.416Z,0
2016-12-10T21:12:32.180Z,0
2016-12-10T21:13:42.325Z,0
2016-12-10T21:14:52.303Z,0
2016-12-10T21:16:02.385Z,0
2016-12-10T21:17:11.723Z,0
2016-12-10T21:18:21.826Z,0
2016-12-10T21:19:31.526Z,0
2016-12-10T21:20:41.534Z,0
2016-12-10T21:21:51.224Z,0
2016-12-10T21:23:00.851Z,0
2016-12-10T21:24:10.798Z,0
2016-12-10T21:25:20.362Z,0
2016-12-10T21:26:30.305Z,0
2016-12-10T21:27:40.204Z,0
2016-12-10T21:28:49.807Z,0
2016-12-10T21:29:59.074Z,0
2016-12-10T21:31:09.092Z,0
2016-12-10T21:32:18.998Z,0
2016-12-10T21:33:28.657Z,0
2016-12-10T21:34:38.345Z,0
2016-12-10T21:35:48.178Z,0
2016-12-10T21:36:57.711Z,0
2016-12-10T21:38:07.656Z,0
2016-12-10T21:39:17.513Z,0
2016-12-10T21:40:27.363Z,0
2016-12-10T21:41:37.226Z,0
2016-12-10T21:42:46.798Z,0
2016-12-10T21:43:56.352Z,0
2016-12-10T21:45:06.223Z,0
2016-12-10T21:46:16.119Z,0
2016-12-10T21:47:25.684Z,0
2016-12-10T21:48:35.661Z,0
2016-12-10T21:49:45.167Z,0
2016-12-10T21:50:54.987Z,0
2016-12-10T21:52:04.780Z,0
2016-12-10T21:53:13.681Z,0
2016-12-10T21:54:23.495Z,0
2016-12-10T21:55:32.989Z,0
2016-12-10T21:56:42.480Z,0
2016-12-10T21:57:52.019Z,0
2016-12-10T21:59:01.829Z,0
2016-12-10T22:00:11.017Z,0
2016-12-10T22:01:20.835Z,0
2016-12-10T22:02:30.696Z,0
2016-12-10T22:03:40.243Z,0
2016-12-10T22:04:50.147Z,0
2016-12-10T22:05:59.963Z,0
2016-12-10T22:07:09.183Z,0
2016-12-10T22:08:18.779Z,0
2016-12-10T22:09:28.593Z,0
2016-12-10T22:10:38.571Z,0
2016-12-10T22:11:48.381Z,0
2016-12-10T22:12:58.200Z,0
2016-12-10T22:14:07.762Z,0
2016-12-10T22:15:17.356Z,0
2016-12-10T22:16:26.883Z,0
2016-12-10T22:17:36.383Z,0
2016-12-10T22:18:46.218Z,0
2016-12-10T22:19:55.474Z,0
2016-12-10T22:21:05.262Z,0
2016-12-10T22:22:14.800Z,0
2016-12-10T22:23:24.777Z,0
2016-12-10T22:24:34.258Z,0
2016-12-10T22:25:43.780Z,0
2016-12-10T22:26:53.605Z,0
2016-12-10T22:28:03.436Z,0
2016-12-10T22:29:12.934Z,0
2016-12-10T22:30:22.750Z,0
2016-12-10T22:31:32.645Z,0
2016-12-10T22:32:42.494Z,0
2016-12-10T22:33:52.028Z,0
2016-12-10T22:35:01.925Z,0
2016-12-10T22:36:11.736Z,0
2016-12-10T22:37:21.200Z,0
2016-12-10T22:38:30.979Z,0
2016-12-10T22:39:40.778Z,0
2016-12-10T22:40:50.591Z,0
2016-12-10T22:42:00.201Z,0
2016-12-10T22:43:10.052Z,0
2016-12-10T22:44:19.574Z,0
2016-12-10T22:45:29.428Z,0
2016-12-10T22:46:39.225Z,0
2016-12-10T22:47:49.025Z,0
2016-12-10T22:48:58.196Z,0
2016-12-10T22:50:08.177Z,0
2016-12-10T22:51:17.077Z,0
2016-12-10T22:52:26.920Z,0
2016-12-10T22:53:36.716Z,0
2016-12-10T22:54:46.205Z,0
2016-12-10T22:55:55.765Z,0
2016-12-10T22:57:05.238Z,0
2016-12-10T22:58:14.885Z,0
2016-12-10T22:59:24.731Z,0
2016-12-10T23:00:34.245Z,0
2016-12-10T23:01:43.728Z,0
2016-12-10T23:02:53.546Z,0
2016-12-10T23:04:03.392Z,0
2016-12-10T23:05:12.884Z,0
2016-12-10T23:06:22.691Z,0
2016-12-10T23:07:31.906Z,0
2016-12-10T23:08:41.733Z,0
2016-12-10T23:09:51.520Z,0
2016-12-10T23:11:01.020Z,0
2016-12-10T23:12:10.972Z,0
2016-12-10T23:13:20.850Z,0
2016-12-10T23:14:30.421Z,0
2016-12-10T23:15:40.240Z,0
2016-12-10T23:16:49.780Z,0
2016-12-10T23:17:59.261Z,0
2016-12-10T23:19:08.897Z,0
2016-12-10T23:20:18.729Z,0
2016-12-10T23:21:28.574Z,0
2016-12-10T23:22:38.397Z,0
2016-12-10T23:23:48.366Z,0
2016-12-10T23:24:58.168Z,0
2016-12-10T23:26:07.693Z,0
2016-12-10T23:27:17.528Z,0
2016-12-10T23:28:27.022Z,0
2016-12-10T23:29:36.558Z,0
2016-12-10T23:30:46.339Z,0
2016-12-10T23:31:56.160Z,0
2016-12-10T23:33:05.966Z,0
2016-12-10T23:34:15.152Z,0
2016-12-10T23:35:24.697Z,0
2016-12-10T23:36:34.523Z,0
2016-12-10T23:37:44.374Z,0
2016-12-10T23:38:54.202Z,0
2016-12-10T23:40:04.005Z,0
2016-12-10T23:41:13.540Z,0
2016-12-10T23:42:23.332Z,0
2016-12-10T23:43:32.825Z,0
2016-12-10T23:45:14.212Z,0
2016-12-10T23:46:23.696Z,0
2016-12-10T23:47:33.191Z,0
2016-12-10T23:48:43.006Z,0
2016-12-10T23:49:52.791Z,0
2016-12-10T23:51:02.611Z,0
2016-12-10T23:52:12.493Z,0
2016-12-10T23:53:22.297Z,0
2016-12-10T23:54:32.114Z,0
2016-12-10T23:55:41.942Z,0
2016-12-10T23:56:51.461Z,0
2016-12-10T23:58:00.932Z,0
2016-12-10T23:59:10.834Z,0
